Terminal Aerodrome Forecast
Issued by NWS

Home | Current Version | Previous Version | Text Only | Print | Product List | Glossary On
Versions: 1 2 3 4 5 6 7 8 9 10 11 12 13 14 15 16 17 18 19 20
000
FTUS43 KPAH 261133
TAFCGI
TAF
KCGI 261133Z 2612/2712 18013G22KT P6SM BKN035
      TEMPO 2615/2619 BKN025
     FM262100 18015G25KT P6SM VCTS OVC025CB PROB30 2622/2702 3SM
      TSRA OVC009CB
     FM270300 26012G18KT P6SM BKN030=

USA.gov is the U.S. government's official web portal to all federal, state and local government web resources and services.